createdAt,value
2023-02-26T00:01:30.448Z,15.01
2023-02-26T00:03:59.767Z,14.94
2023-02-26T00:06:27.633Z,14.86
2023-02-26T00:08:55.512Z,15.04
2023-02-26T00:11:23.025Z,15.07
2023-02-26T00:13:50.552Z,15.19
2023-02-26T00:16:23.707Z,15.22
2023-02-26T00:18:50.977Z,15.06
2023-02-26T00:21:19.798Z,15.26
2023-02-26T00:23:46.869Z,15.23
2023-02-26T00:26:13.729Z,15.16
2023-02-26T00:28:41.443Z,15.14
2023-02-26T00:31:09.036Z,15.28
2023-02-26T00:33:36.529Z,15.20
2023-02-26T00:36:24.248Z,15.31
2023-02-26T00:39:01.627Z,15.00
2023-02-26T00:41:29.626Z,15.04
2023-02-26T00:43:57.164Z,15.24
2023-02-26T00:46:59.411Z,15.05
2023-02-26T00:49:53.762Z,15.07
2023-02-26T00:52:32.932Z,15.07
2023-02-26T00:54:59.879Z,15.14
2023-02-26T00:57:26.729Z,15.13
2023-02-26T00:59:53.786Z,15.29
2023-02-26T01:02:20.878Z,15.18
2023-02-26T01:04:48.577Z,15.20
2023-02-26T01:07:18.563Z,15.21
2023-02-26T01:09:45.783Z,15.18
2023-02-26T01:12:13.650Z,15.03
2023-02-26T01:14:41.360Z,15.27
2023-02-26T01:17:35.940Z,15.32
2023-02-26T01:20:27.436Z,15.14
2023-02-26T01:23:01.571Z,15.04
2023-02-26T01:25:44.185Z,15.12
2023-02-26T01:28:11.430Z,15.20
2023-02-26T01:30:38.723Z,15.21
2023-02-26T01:33:17.905Z,15.13
2023-02-26T01:35:54.857Z,15.34
2023-02-26T01:38:31.333Z,14.69
2023-02-26T01:40:58.304Z,14.90
2023-02-26T01:43:46.807Z,14.76
2023-02-26T01:46:25.870Z,14.50
2023-02-26T01:48:57.332Z,14.74
2023-02-26T01:51:51.786Z,14.63
2023-02-26T01:54:29.641Z,14.71
2023-02-26T01:57:05.140Z,14.93
2023-02-26T01:59:38.740Z,15.07
2023-02-26T02:02:08.461Z,15.29
2023-02-26T02:04:35.854Z,15.27
2023-02-26T02:07:03.804Z,15.16
2023-02-26T02:09:32.365Z,14.86
2023-02-26T02:12:27.813Z,15.24
2023-02-26T02:15:00.989Z,14.93
2023-02-26T02:17:55.757Z,14.77
2023-02-26T02:20:57.015Z,15.29
2023-02-26T02:23:29.775Z,15.32
2023-02-26T02:26:02.385Z,14.88
2023-02-26T02:28:35.195Z,15.09
2023-02-26T02:31:09.300Z,15.29
2023-02-26T02:33:46.916Z,14.75
2023-02-26T02:36:23.156Z,14.66
2023-02-26T02:38:57.221Z,14.38
2023-02-26T02:41:34.372Z,14.37
2023-02-26T02:44:03.640Z,14.24
2023-02-26T02:46:34.095Z,14.39
2023-02-26T02:49:04.979Z,14.32
2023-02-26T02:51:39.049Z,14.17
2023-02-26T02:54:12.635Z,14.41
2023-02-26T02:57:08.861Z,14.83
2023-02-26T02:59:45.830Z,15.17
2023-02-26T03:02:12.745Z,14.61
2023-02-26T03:04:41.582Z,14.65
2023-02-26T03:07:09.140Z,13.98
2023-02-26T03:09:36.683Z,14.15
2023-02-26T03:12:04.186Z,14.00
2023-02-26T03:14:32.987Z,13.97
2023-02-26T03:17:27.489Z,14.47
2023-02-26T03:20:33.864Z,14.33
2023-02-26T03:23:14.777Z,14.25
2023-02-26T03:25:53.796Z,14.90
2023-02-26T03:28:31.646Z,15.49
2023-02-26T03:31:33.684Z,15.39
2023-02-26T03:34:34.289Z,15.38
2023-02-26T03:37:31.878Z,15.16
2023-02-26T03:40:02.634Z,14.95
2023-02-26T03:42:40.044Z,15.47
2023-02-26T03:45:12.964Z,15.57
2023-02-26T03:47:43.181Z,15.57
2023-02-26T03:50:16.763Z,15.82
2023-02-26T03:53:02.671Z,15.54
2023-02-26T03:55:58.085Z,15.31
2023-02-26T03:58:45.669Z,15.52
2023-02-26T04:01:41.234Z,15.22
2023-02-26T04:04:15.793Z,15.40
2023-02-26T04:06:44.633Z,15.35
2023-02-26T04:09:12.033Z,15.46
2023-02-26T04:11:40.444Z,15.34
2023-02-26T04:14:07.450Z,15.41
2023-02-26T04:16:39.082Z,15.49
2023-02-26T04:19:06.555Z,15.57
2023-02-26T04:21:33.864Z,15.33
2023-02-26T04:24:00.996Z,15.36
2023-02-26T04:26:27.918Z,15.37
2023-02-26T04:28:54.838Z,15.41
2023-02-26T04:31:22.122Z,15.38
2023-02-26T04:33:49.323Z,15.45
2023-02-26T04:36:16.301Z,15.39
2023-02-26T04:38:43.189Z,15.54
2023-02-26T04:41:10.649Z,15.63
2023-02-26T04:43:37.880Z,15.76
2023-02-26T04:46:23.372Z,15.72
2023-02-26T04:48:50.570Z,15.54
2023-02-26T04:51:18.230Z,15.68
2023-02-26T04:53:45.540Z,15.49
2023-02-26T04:56:13.148Z,15.03
2023-02-26T04:58:40.822Z,14.54
2023-02-26T05:01:14.390Z,14.32
2023-02-26T05:03:42.148Z,13.96
2023-02-26T05:06:11.015Z,14.15
2023-02-26T05:08:42.266Z,13.83
2023-02-26T05:11:12.666Z,14.18
2023-02-26T05:13:39.746Z,14.32
2023-02-26T05:16:07.754Z,14.38
2023-02-26T05:18:34.761Z,14.72
2023-02-26T05:21:02.009Z,14.80
2023-02-26T05:23:28.956Z,14.91
2023-02-26T05:25:57.247Z,15.33
2023-02-26T05:28:25.739Z,15.41
2023-02-26T05:30:53.558Z,15.56
2023-02-26T05:33:21.187Z,15.69
2023-02-26T05:35:49.166Z,15.45
2023-02-26T05:38:16.312Z,15.22
2023-02-26T05:40:43.209Z,15.37
2023-02-26T05:43:10.572Z,15.67
2023-02-26T05:45:37.562Z,15.92
2023-02-26T05:48:04.586Z,15.52
2023-02-26T05:50:31.607Z,15.67
2023-02-26T05:52:58.900Z,15.44
2023-02-26T05:55:25.793Z,15.69
2023-02-26T05:57:52.993Z,16.04
2023-02-26T06:00:20.269Z,16.06
2023-02-26T06:02:47.219Z,15.96
2023-02-26T06:05:14.474Z,15.92
2023-02-26T06:07:41.350Z,16.02
2023-02-26T06:10:08.906Z,16.07
2023-02-26T06:12:36.588Z,16.06
2023-02-26T06:15:04.828Z,15.99
2023-02-26T06:17:31.736Z,16.13
2023-02-26T06:19:58.762Z,16.30
2023-02-26T06:22:25.748Z,16.33
2023-02-26T06:24:52.608Z,15.91
2023-02-26T06:27:19.518Z,16.09
2023-02-26T06:29:46.436Z,16.01
2023-02-26T06:32:13.538Z,15.78
2023-02-26T06:34:40.553Z,15.99
2023-02-26T06:37:07.518Z,15.81
2023-02-26T06:39:34.474Z,15.85
2023-02-26T06:42:01.373Z,15.81
2023-02-26T06:44:28.354Z,15.81
2023-02-26T06:46:55.222Z,15.86
2023-02-26T06:49:22.121Z,16.00
2023-02-26T06:51:49.008Z,15.91
2023-02-26T06:54:16.261Z,15.93
2023-02-26T06:56:43.172Z,16.04
2023-02-26T06:59:10.099Z,15.83
2023-02-26T07:01:37.026Z,15.99
2023-02-26T07:04:04.015Z,15.73
2023-02-26T07:06:30.884Z,15.75
2023-02-26T07:08:57.798Z,15.77
2023-02-26T07:11:25.570Z,15.75
2023-02-26T07:13:52.605Z,15.58
2023-02-26T07:16:19.583Z,15.54
2023-02-26T07:18:46.470Z,15.85
2023-02-26T07:21:13.357Z,16.18
2023-02-26T07:23:40.389Z,16.28
2023-02-26T07:26:09.157Z,16.49
2023-02-26T07:28:36.392Z,16.83
2023-02-26T07:31:03.594Z,16.43
2023-02-26T07:33:31.953Z,16.63
2023-02-26T07:35:58.945Z,16.34
2023-02-26T07:38:25.902Z,16.13
2023-02-26T07:40:56.534Z,15.94
2023-02-26T07:43:24.977Z,15.93
2023-02-26T07:45:53.089Z,15.85
2023-02-26T07:48:20.956Z,16.46
2023-02-26T07:50:47.912Z,16.46
2023-02-26T07:53:14.923Z,16.07
2023-02-26T07:55:42.022Z,16.61
2023-02-26T07:58:08.934Z,16.87
2023-02-26T08:00:35.906Z,17.30
2023-02-26T08:03:03.002Z,17.33
2023-02-26T08:05:30.294Z,17.32
2023-02-26T08:07:57.582Z,17.44
2023-02-26T08:10:24.592Z,17.48
2023-02-26T08:12:51.510Z,17.44
2023-02-26T08:15:18.406Z,17.74
2023-02-26T08:17:45.478Z,17.84
2023-02-26T08:20:14.934Z,17.85
2023-02-26T08:22:41.967Z,18.10
2023-02-26T08:25:09.302Z,17.75
2023-02-26T08:27:36.380Z,17.72
2023-02-26T08:30:05.081Z,17.52
2023-02-26T08:32:32.063Z,17.27
2023-02-26T08:34:59.031Z,18.18
2023-02-26T08:37:25.988Z,18.07
2023-02-26T08:39:54.433Z,17.98
2023-02-26T08:42:21.441Z,18.29
2023-02-26T08:44:48.376Z,18.39
2023-02-26T08:47:24.523Z,18.59
2023-02-26T08:49:55.122Z,19.16
2023-02-26T08:52:22.219Z,19.38
2023-02-26T08:54:49.241Z,19.19
2023-02-26T08:57:16.291Z,19.08
2023-02-26T08:59:43.265Z,18.85
2023-02-26T09:02:11.813Z,19.49
2023-02-26T09:04:38.755Z,19.72
2023-02-26T09:07:05.916Z,20.01
2023-02-26T09:09:32.950Z,19.59
2023-02-26T09:11:59.869Z,19.42
2023-02-26T09:14:26.841Z,19.44
2023-02-26T09:16:53.732Z,19.45
2023-02-26T09:19:20.759Z,20.01
2023-02-26T09:21:47.659Z,20.08
2023-02-26T09:24:15.356Z,19.67
2023-02-26T09:26:42.392Z,18.87
2023-02-26T09:29:09.400Z,18.69
2023-02-26T09:31:36.449Z,18.69
2023-02-26T09:34:03.586Z,18.55
2023-02-26T09:36:31.556Z,18.86
2023-02-26T09:38:58.570Z,19.21
2023-02-26T09:41:30.559Z,19.05
2023-02-26T09:43:57.431Z,19.56
2023-02-26T09:46:50.401Z,19.50
2023-02-26T09:49:35.656Z,19.14
2023-02-26T09:52:20.823Z,19.11
2023-02-26T09:54:52.470Z,18.83
2023-02-26T09:57:27.339Z,18.70
2023-02-26T09:59:54.646Z,18.90
2023-02-26T10:02:28.619Z,19.06
2023-02-26T10:05:13.739Z,18.77
2023-02-26T10:08:05.996Z,18.78
2023-02-26T10:10:45.431Z,19.06
2023-02-26T10:13:21.634Z,18.45
2023-02-26T10:15:52.532Z,18.62
2023-02-26T10:18:32.495Z,18.66
2023-02-26T10:21:12.669Z,18.64
2023-02-26T10:23:45.176Z,18.76
2023-02-26T10:26:14.320Z,18.56
2023-02-26T10:28:54.471Z,18.55
2023-02-26T10:31:32.349Z,18.75
2023-02-26T10:34:17.900Z,18.50
2023-02-26T10:36:44.587Z,18.75
2023-02-26T10:39:27.390Z,18.68
2023-02-26T10:41:54.694Z,18.88
2023-02-26T10:45:09.502Z,18.50
2023-02-26T10:48:07.057Z,18.33
2023-02-26T10:50:34.123Z,18.37
2023-02-26T10:53:01.239Z,18.13
2023-02-26T10:55:39.136Z,18.07
2023-02-26T10:58:15.462Z,18.33
2023-02-26T11:00:46.614Z,18.72
2023-02-26T11:03:22.505Z,18.63
2023-02-26T11:05:49.655Z,18.41
2023-02-26T11:08:23.893Z,18.37
2023-02-26T11:10:52.352Z,18.30
2023-02-26T11:13:21.267Z,18.23
2023-02-26T11:15:51.533Z,18.26
2023-02-26T11:18:32.739Z,18.21
2023-02-26T11:21:00.727Z,18.27
2023-02-26T11:23:31.207Z,17.97
2023-02-26T11:26:05.428Z,17.75
2023-02-26T11:28:44.948Z,17.79
2023-02-26T11:31:15.554Z,17.59
2023-02-26T11:33:50.340Z,17.63
2023-02-26T11:36:22.985Z,17.65
2023-02-26T11:38:56.745Z,17.74
2023-02-26T11:41:26.140Z,17.83
2023-02-26T11:44:05.299Z,17.90
2023-02-26T11:46:42.972Z,18.09
2023-02-26T11:49:13.011Z,18.27
2023-02-26T11:51:45.525Z,18.39
2023-02-26T11:54:29.002Z,18.36
2023-02-26T11:57:06.351Z,18.30
2023-02-26T11:59:33.473Z,18.12
2023-02-26T12:02:23.383Z,18.32
2023-02-26T12:04:53.633Z,18.39
2023-02-26T12:07:22.192Z,18.46
2023-02-26T12:09:49.746Z,18.23
2023-02-26T12:13:02.274Z,18.24
2023-02-26T12:15:37.072Z,18.25
2023-02-26T12:18:15.607Z,18.35
2023-02-26T12:21:03.735Z,18.26
2023-02-26T12:23:44.130Z,18.04
2023-02-26T12:26:33.989Z,18.09
2023-02-26T12:29:24.100Z,17.95
2023-02-26T12:32:03.590Z,17.83
2023-02-26T12:34:45.343Z,18.15
2023-02-26T12:37:18.930Z,18.17
2023-02-26T12:40:09.326Z,18.26
2023-02-26T12:42:57.362Z,18.01
2023-02-26T12:45:45.552Z,18.15
2023-02-26T12:48:21.385Z,18.07
2023-02-26T12:51:01.943Z,18.14
2023-02-26T12:53:41.051Z,17.97
2023-02-26T12:56:44.911Z,17.68
2023-02-26T12:59:23.272Z,17.61
2023-02-26T13:02:23.653Z,17.77
2023-02-26T13:05:24.248Z,17.55
2023-02-26T13:07:56.920Z,17.52
2023-02-26T13:10:54.983Z,17.57
2023-02-26T13:13:48.536Z,17.64
2023-02-26T13:16:15.417Z,17.67
2023-02-26T13:19:06.145Z,17.67
2023-02-26T13:21:51.541Z,17.74
2023-02-26T13:24:32.843Z,17.85
2023-02-26T13:27:01.600Z,17.74
2023-02-26T13:29:48.791Z,17.56
2023-02-26T13:32:21.709Z,17.95
2023-02-26T13:34:58.876Z,18.00
2023-02-26T13:37:30.926Z,17.90
2023-02-26T13:40:27.437Z,17.78
2023-02-26T13:43:06.482Z,17.58
2023-02-26T13:45:51.209Z,17.58
2023-02-26T13:48:32.538Z,17.63
2023-02-26T13:51:26.365Z,17.90
2023-02-26T13:53:55.211Z,17.87
2023-02-26T13:56:47.921Z,17.80
2023-02-26T13:59:18.827Z,17.59
2023-02-26T14:01:47.526Z,17.85
2023-02-26T14:04:22.442Z,17.79
2023-02-26T14:06:49.597Z,17.61
2023-02-26T14:09:22.262Z,17.72
2023-02-26T14:11:55.101Z,17.81
2023-02-26T14:14:22.081Z,17.69
2023-02-26T14:16:55.586Z,17.36
2023-02-26T14:19:24.364Z,17.59
2023-02-26T14:21:59.067Z,17.72
2023-02-26T14:24:44.777Z,17.63
2023-02-26T14:27:11.698Z,17.68
2023-02-26T14:29:44.130Z,17.49
2023-02-26T14:32:11.090Z,17.50
2023-02-26T14:34:48.220Z,17.70
2023-02-26T14:37:19.388Z,17.53
2023-02-26T14:39:53.401Z,17.45
2023-02-26T14:42:44.229Z,17.52
2023-02-26T14:45:38.975Z,17.56
2023-02-26T14:48:12.689Z,17.82
2023-02-26T14:51:16.691Z,17.67
2023-02-26T14:54:02.052Z,17.79
2023-02-26T14:56:59.226Z,17.95
2023-02-26T14:59:51.252Z,17.66
2023-02-26T15:02:40.104Z,17.59
2023-02-26T15:05:22.665Z,17.46
2023-02-26T15:08:01.369Z,17.74
2023-02-26T15:10:31.035Z,17.52
2023-02-26T15:13:04.130Z,17.42
2023-02-26T15:15:34.390Z,17.62
2023-02-26T15:18:15.150Z,17.67
2023-02-26T15:20:51.140Z,17.91
2023-02-26T15:23:18.079Z,17.96
2023-02-26T15:25:48.381Z,17.62
2023-02-26T15:28:25.617Z,17.49
2023-02-26T15:30:53.064Z,17.48
2023-02-26T15:33:23.663Z,17.68
2023-02-26T15:35:52.429Z,17.68
2023-02-26T15:38:20.014Z,17.95
2023-02-26T15:40:49.515Z,17.61
2023-02-26T15:43:24.373Z,17.40
2023-02-26T15:45:57.533Z,17.40
2023-02-26T15:48:31.461Z,17.52
2023-02-26T15:51:01.606Z,17.28
2023-02-26T15:53:43.221Z,17.27
2023-02-26T15:56:36.779Z,17.32
2023-02-26T15:59:11.250Z,17.41
2023-02-26T16:01:40.935Z,17.32
2023-02-26T16:04:13.772Z,17.37
2023-02-26T16:06:43.204Z,17.34
2023-02-26T16:09:25.316Z,17.58
2023-02-26T16:11:55.809Z,17.47
2023-02-26T16:14:27.206Z,17.46
2023-02-26T16:16:56.334Z,17.64
2023-02-26T16:19:37.144Z,17.37
2023-02-26T16:22:31.690Z,17.39
2023-02-26T16:25:25.526Z,17.45
2023-02-26T16:28:11.988Z,17.06
2023-02-26T16:30:42.726Z,17.12
2023-02-26T16:33:18.487Z,17.19
2023-02-26T16:35:49.039Z,17.12
2023-02-26T16:38:46.972Z,17.10
2023-02-26T16:41:14.820Z,16.85
2023-02-26T16:43:50.437Z,16.93
2023-02-26T16:46:23.039Z,16.85
2023-02-26T16:48:55.859Z,16.97
2023-02-26T16:51:25.864Z,16.81
2023-02-26T16:54:03.263Z,16.91
2023-02-26T16:56:33.404Z,16.89
2023-02-26T16:59:18.247Z,16.96
2023-02-26T17:01:55.973Z,16.95
2023-02-26T17:04:28.856Z,17.04
2023-02-26T17:06:57.353Z,17.19
2023-02-26T17:09:42.992Z,17.20
2023-02-26T17:12:48.214Z,17.02
2023-02-26T17:15:36.340Z,17.38
2023-02-26T17:18:03.507Z,17.38
2023-02-26T17:20:32.197Z,17.58
2023-02-26T17:23:02.053Z,17.28
2023-02-26T17:25:34.939Z,17.10
2023-02-26T17:28:02.499Z,16.97
2023-02-26T17:30:33.742Z,17.00
2023-02-26T17:33:04.072Z,17.06
2023-02-26T17:35:31.646Z,16.95
2023-02-26T17:38:00.464Z,17.20
2023-02-26T17:40:31.943Z,17.21
2023-02-26T17:43:00.173Z,17.23
2023-02-26T17:45:27.120Z,17.18
2023-02-26T17:47:54.180Z,17.25
2023-02-26T17:50:47.275Z,17.15
2023-02-26T17:53:17.706Z,17.15
2023-02-26T17:55:49.634Z,17.39
2023-02-26T17:58:22.046Z,17.60
2023-02-26T18:00:53.213Z,18.11
2023-02-26T18:03:21.339Z,18.11
2023-02-26T18:05:50.110Z,17.81
2023-02-26T18:08:24.745Z,17.93
2023-02-26T18:10:52.822Z,18.07
2023-02-26T18:13:20.670Z,18.09
2023-02-26T18:15:48.592Z,17.47
2023-02-26T18:18:16.100Z,17.67
2023-02-26T18:20:44.110Z,18.03
2023-02-26T18:23:13.887Z,17.88
2023-02-26T18:25:42.091Z,17.49
2023-02-26T18:28:29.814Z,17.81
2023-02-26T18:30:58.108Z,18.18
2023-02-26T18:33:26.124Z,18.42
2023-02-26T18:35:56.939Z,18.09
2023-02-26T18:38:27.825Z,17.96
2023-02-26T18:40:55.450Z,18.31
2023-02-26T18:43:22.682Z,18.30
2023-02-26T18:45:52.505Z,17.60
2023-02-26T18:48:21.061Z,17.87
2023-02-26T18:50:49.136Z,17.93
2023-02-26T18:53:17.800Z,17.76
2023-02-26T18:55:45.188Z,17.58
2023-02-26T18:58:12.521Z,17.60
2023-02-26T19:00:39.419Z,17.47
2023-02-26T19:03:06.475Z,17.01
2023-02-26T19:05:33.457Z,17.39
2023-02-26T19:08:01.164Z,17.54
2023-02-26T19:10:31.913Z,17.64
2023-02-26T19:12:58.959Z,17.59
2023-02-26T19:15:26.300Z,17.42
2023-02-26T19:17:53.318Z,17.48
2023-02-26T19:20:20.262Z,17.46
2023-02-26T19:22:47.356Z,17.61
2023-02-26T19:25:14.680Z,17.78
2023-02-26T19:27:41.636Z,17.72
2023-02-26T19:30:09.564Z,17.49
2023-02-26T19:32:36.464Z,17.53
2023-02-26T19:35:03.599Z,17.77
2023-02-26T19:37:30.841Z,17.79
2023-02-26T19:39:57.743Z,17.72
2023-02-26T19:42:24.906Z,17.79
2023-02-26T19:44:52.081Z,17.77
2023-02-26T19:47:19.044Z,17.98
2023-02-26T19:49:45.900Z,17.97
2023-02-26T19:52:12.808Z,18.10
2023-02-26T19:54:39.711Z,17.57
2023-02-26T19:57:06.591Z,17.66
2023-02-26T19:59:33.561Z,17.05
2023-02-26T20:02:00.786Z,16.83
2023-02-26T20:04:27.889Z,16.44
2023-02-26T20:06:55.079Z,17.39
2023-02-26T20:09:23.014Z,16.94
2023-02-26T20:11:50.580Z,16.88
2023-02-26T20:14:18.684Z,16.67
2023-02-26T20:16:45.754Z,16.75
2023-02-26T20:19:12.817Z,17.02
2023-02-26T20:21:40.748Z,17.29
2023-02-26T20:24:08.148Z,17.59
2023-02-26T20:26:35.849Z,17.69
2023-02-26T20:29:02.862Z,17.44
2023-02-26T20:31:30.809Z,17.67
2023-02-26T20:33:58.713Z,17.84
2023-02-26T20:36:25.969Z,18.00
2023-02-26T20:38:52.839Z,17.67
2023-02-26T20:41:20.032Z,17.53
2023-02-26T20:43:47.006Z,17.48
2023-02-26T20:46:13.935Z,17.52
2023-02-26T20:48:43.072Z,17.47
2023-02-26T20:51:12.164Z,17.60
2023-02-26T20:53:40.085Z,17.35
2023-02-26T20:56:07.345Z,17.50
2023-02-26T20:58:34.544Z,17.56
2023-02-26T21:01:01.508Z,17.55
2023-02-26T21:03:28.513Z,17.32
2023-02-26T21:05:56.180Z,17.26
2023-02-26T21:08:23.649Z,16.92
2023-02-26T21:10:51.751Z,17.02
2023-02-26T21:13:19.144Z,17.20
2023-02-26T21:15:46.141Z,17.20
2023-02-26T21:18:13.125Z,17.22
2023-02-26T21:20:40.100Z,17.27
2023-02-26T21:23:07.049Z,17.37
2023-02-26T21:25:33.931Z,17.09
2023-02-26T21:28:00.860Z,17.17
2023-02-26T21:30:29.001Z,17.27
2023-02-26T21:32:56.394Z,16.87
2023-02-26T21:35:23.340Z,16.77
2023-02-26T21:37:50.283Z,16.62
2023-02-26T21:40:17.506Z,16.80
2023-02-26T21:42:44.558Z,16.73
2023-02-26T21:45:12.109Z,16.73
2023-02-26T21:47:39.265Z,16.77
2023-02-26T21:50:07.103Z,16.91
2023-02-26T21:52:34.329Z,17.00
2023-02-26T21:55:01.351Z,17.06
2023-02-26T21:57:28.496Z,16.74
2023-02-26T21:59:55.670Z,16.77
2023-02-26T22:02:22.669Z,16.96
2023-02-26T22:04:49.840Z,17.01
2023-02-26T22:07:16.771Z,17.28
2023-02-26T22:09:46.237Z,16.88
2023-02-26T22:12:13.963Z,16.78
2023-02-26T22:14:41.025Z,16.64
2023-02-26T22:17:07.958Z,16.84
2023-02-26T22:19:35.071Z,16.69
2023-02-26T22:22:02.036Z,16.62
2023-02-26T22:24:29.036Z,16.57
2023-02-26T22:26:56.021Z,16.79
2023-02-26T22:29:23.422Z,16.98
2023-02-26T22:31:51.098Z,16.86
2023-02-26T22:34:18.098Z,16.86
2023-02-26T22:36:45.220Z,17.14
2023-02-26T22:39:13.375Z,16.82
2023-02-26T22:41:40.521Z,16.92
2023-02-26T22:44:07.438Z,16.64
2023-02-26T22:46:34.537Z,16.44
2023-02-26T22:49:01.613Z,16.62
2023-02-26T22:51:30.052Z,16.53
2023-02-26T22:53:57.293Z,16.70
2023-02-26T22:56:25.092Z,16.94
2023-02-26T22:58:52.073Z,16.83
2023-02-26T23:01:19.390Z,16.97
2023-02-26T23:03:46.938Z,17.23
2023-02-26T23:06:14.553Z,17.05
2023-02-26T23:08:41.730Z,16.91
2023-02-26T23:11:09.013Z,16.93
2023-02-26T23:13:38.206Z,16.82
2023-02-26T23:16:08.024Z,16.58
2023-02-26T23:18:36.702Z,16.54
2023-02-26T23:21:06.082Z,16.80
2023-02-26T23:23:33.497Z,16.77
2023-02-26T23:26:00.602Z,16.56
2023-02-26T23:28:28.140Z,16.47
2023-02-26T23:30:55.165Z,16.84
2023-02-26T23:33:22.474Z,16.67
2023-02-26T23:35:49.704Z,16.70
2023-02-26T23:38:16.615Z,17.08
2023-02-26T23:40:43.534Z,17.11
2023-02-26T23:43:10.681Z,17.01
2023-02-26T23:45:37.596Z,16.99
2023-02-26T23:48:04.643Z,16.94
2023-02-26T23:50:31.542Z,16.66
2023-02-26T23:52:58.475Z,17.01
2023-02-26T23:55:25.328Z,16.89
2023-02-26T23:57:52.243Z,16.90
